Pagina principale
METAR-TAF:

METAR-TAF

Aeroporti :

Aeroporto di Cuneo-Levaldigi

Cuneo, Italia

latitudine: 44-32-47N, longitudine: 007-37-20E, altezza: 386 m

Osservazione

Il bollettino è stato emesso 46 minuti fa, alle 06:50 UTC
Vento 3 kt da ovest
Temperature 10°C
Umidità 93%
Pressione 1026 hPa
Visibilità: 8000 m
Nuvoloso ad un'altezza di 2000 ft

METAR: LIMZ 160650Z 26003KT 8000 BKN020 10/09 Q1026

Ora: 08:36 (07:36 UTC)

Previsione

Il bollettino è stato emesso 2 ore e 36 minuti fa, alle 05:00 UTC
Previsione valida dal 16 alle 06 UTC al 17 alle 06 UTC
Vento 5 kt da direzioni variabili
Visibilità: 3000 m
Nuvoloso ad un'altezza di 1500 ft
foschia
Temporaneamente
dal 16 alle 12 UTC al 16 alle 20 UTC
pioggia

TAF: LIMZ 160500Z 1606/1706 VRB05KT 3000 BR BKN015 TEMPO 1612/1620 RA

Osservazioni e previsioni meteorologiche di più di 4000 aeroporti (messaggi METAR e TAF).

Le stazioni disponibili sono rappresentate dai dischi gialli e rossi sulla carta.

Puntare il mouse per vedere il nome della stazione.

Clicca sopra per visualizzare le osservazioni e previsioni meteorologiche.

Per cambiare la mappa : fare clic sui pulsanti verdi con una croce nera per ingrandire, il pulsante verde con un trattino per diminuire, o sulla freccia verde per le mappe adiacenti.


METAR-TAF: